createdAt,value
2018-07-05T00:00:48.850Z,81.42
2018-07-05T00:01:48.842Z,81.65
2018-07-05T00:02:48.872Z,80.50
2018-07-05T00:03:48.886Z,79.73
2018-07-05T00:04:48.904Z,79.00
2018-07-05T00:05:48.920Z,78.71
2018-07-05T00:06:48.951Z,78.61
2018-07-05T00:07:48.995Z,79.67
2018-07-05T00:08:48.995Z,78.52
2018-07-05T00:09:49.023Z,78.52
2018-07-05T00:10:49.033Z,79.44
2018-07-05T00:11:49.058Z,80.60
2018-07-05T00:12:49.073Z,81.52
2018-07-05T00:13:49.099Z,82.19
2018-07-05T00:14:49.118Z,82.24
2018-07-05T00:15:49.144Z,82.82
2018-07-05T00:16:49.176Z,83.30
2018-07-05T00:17:49.186Z,82.29
2018-07-05T00:18:49.201Z,81.07
2018-07-05T00:19:49.229Z,80.88
2018-07-05T00:20:49.245Z,79.73
2018-07-05T00:21:49.270Z,79.10
2018-07-05T00:22:49.293Z,78.33
2018-07-05T00:23:49.332Z,78.90
2018-07-05T00:24:49.333Z,78.86
2018-07-05T00:25:49.353Z,79.25
2018-07-05T00:26:49.374Z,80.21
2018-07-05T00:27:49.399Z,80.69
2018-07-05T00:28:49.415Z,81.23
2018-07-05T00:29:49.434Z,82.05
2018-07-05T00:30:49.456Z,82.43
2018-07-05T00:31:49.484Z,81.99
2018-07-05T00:32:49.509Z,81.52
2018-07-05T00:33:49.521Z,82.43
2018-07-05T00:34:49.553Z,81.81
2018-07-05T00:35:49.587Z,80.94
2018-07-05T00:36:49.597Z,79.92
2018-07-05T00:37:49.611Z,79.92
2018-07-05T00:38:49.632Z,80.11
2018-07-05T00:39:49.647Z,80.11
2018-07-05T00:40:49.678Z,80.02
2018-07-05T00:41:49.692Z,79.25
2018-07-05T00:42:49.718Z,79.53
2018-07-05T00:43:49.733Z,80.11
2018-07-05T00:44:49.753Z,80.55
2018-07-05T00:45:49.776Z,82.05
2018-07-05T00:46:49.819Z,82.19
2018-07-05T00:47:49.819Z,82.73
2018-07-05T00:48:49.841Z,83.07
2018-07-05T00:49:49.896Z,83.78
2018-07-05T00:50:49.889Z,83.64
2018-07-05T00:51:49.903Z,84.12
2018-07-05T00:52:49.928Z,84.60
2018-07-05T00:53:49.954Z,85.04
2018-07-05T00:54:49.961Z,84.03
2018-07-05T00:55:49.986Z,82.34
2018-07-05T00:56:50.013Z,81.52
2018-07-05T00:57:50.028Z,80.71
2018-07-05T00:58:50.053Z,81.67
2018-07-05T00:59:50.068Z,81.67
2018-07-05T01:00:50.093Z,82.05
2018-07-05T01:01:50.125Z,82.34
2018-07-05T01:02:50.131Z,81.32
2018-07-05T01:03:50.155Z,81.04
2018-07-05T01:04:50.176Z,80.27
2018-07-05T01:05:50.207Z,80.17
2018-07-05T01:06:50.215Z,80.27
2018-07-05T01:07:50.232Z,81.42
2018-07-05T01:08:50.261Z,81.04
2018-07-05T01:09:50.277Z,80.75
2018-07-05T01:10:50.312Z,80.21
2018-07-05T01:11:50.329Z,80.11
2018-07-05T01:12:50.356Z,79.92
2018-07-05T01:13:50.359Z,80.02
2018-07-05T01:14:50.385Z,79.73
2018-07-05T01:15:50.408Z,79.25
2018-07-05T01:16:50.424Z,79.82
2018-07-05T01:17:50.456Z,79.15
2018-07-05T01:18:50.467Z,78.38
2018-07-05T01:19:50.490Z,79.05
2018-07-05T01:20:50.526Z,80.36
2018-07-05T01:21:50.535Z,80.94
2018-07-05T01:22:50.552Z,81.86
2018-07-05T01:23:50.576Z,82.24
2018-07-05T01:24:50.607Z,83.07
2018-07-05T01:25:50.616Z,84.80
2018-07-05T01:26:50.639Z,84.89
2018-07-05T01:27:50.660Z,83.40
2018-07-05T01:28:50.683Z,83.49
2018-07-05T01:29:50.712Z,83.54
2018-07-05T01:30:50.724Z,84.85
2018-07-05T01:31:50.748Z,85.42
2018-07-05T01:32:50.759Z,85.71
2018-07-05T01:33:50.787Z,86.10
2018-07-05T01:34:50.807Z,86.48
2018-07-05T01:35:50.825Z,85.71
2018-07-05T01:36:50.854Z,84.95
2018-07-05T01:37:50.866Z,85.75
2018-07-05T01:38:50.895Z,84.56
2018-07-05T01:39:50.913Z,85.24
2018-07-05T01:40:50.939Z,85.52
2018-07-05T01:41:50.949Z,85.04
2018-07-05T01:42:50.986Z,85.52
2018-07-05T01:43:51.022Z,85.52
2018-07-05T01:44:51.025Z,84.70
2018-07-05T01:45:51.041Z,83.84
2018-07-05T01:46:51.060Z,83.64
2018-07-05T01:47:51.074Z,84.70
2018-07-05T01:48:51.099Z,85.91
2018-07-05T01:49:51.155Z,86.48
2018-07-05T01:50:51.140Z,88.07
2018-07-05T01:51:51.166Z,88.35
2018-07-05T01:52:51.192Z,88.07
2018-07-05T01:53:51.216Z,87.54
2018-07-05T01:54:51.226Z,85.91
2018-07-05T01:55:51.250Z,85.57
2018-07-05T01:56:51.272Z,84.70
2018-07-05T01:57:51.287Z,84.70
2018-07-05T01:58:51.307Z,84.41
2018-07-05T01:59:51.327Z,84.80
2018-07-05T02:00:51.352Z,83.74
2018-07-05T02:01:51.382Z,83.01
2018-07-05T02:02:51.389Z,82.24
2018-07-05T02:03:51.426Z,81.86
2018-07-05T02:04:51.463Z,82.05
2018-07-05T02:05:51.452Z,80.84
2018-07-05T02:06:51.490Z,80.94
2018-07-05T02:07:51.521Z,80.46
2018-07-05T02:08:51.520Z,81.13
2018-07-05T02:09:51.539Z,80.65
2018-07-05T02:10:51.561Z,81.61
2018-07-05T02:11:51.574Z,81.67
2018-07-05T02:12:51.605Z,82.15
2018-07-05T02:13:51.622Z,82.43
2018-07-05T02:14:51.658Z,84.37
2018-07-05T02:15:51.660Z,85.42
2018-07-05T02:16:51.686Z,85.24
2018-07-05T02:17:51.720Z,85.81
2018-07-05T02:18:51.722Z,84.75
2018-07-05T02:19:51.766Z,84.22
2018-07-05T02:20:51.766Z,83.74
2018-07-05T02:21:51.796Z,84.75
2018-07-05T02:22:51.826Z,84.66
2018-07-05T02:23:51.833Z,84.31
2018-07-05T02:24:51.856Z,84.66
2018-07-05T02:25:51.879Z,84.75
2018-07-05T02:26:51.898Z,85.71
2018-07-05T02:27:51.932Z,85.42
2018-07-05T02:28:51.939Z,86.05
2018-07-05T02:29:51.952Z,85.62
2018-07-05T02:30:51.998Z,85.24
2018-07-05T02:31:52.004Z,84.22
2018-07-05T02:32:52.022Z,83.74
2018-07-05T02:33:52.038Z,82.30
2018-07-05T02:34:52.058Z,81.86
2018-07-05T02:35:52.083Z,82.40
2018-07-05T02:36:52.121Z,83.74
2018-07-05T02:37:52.124Z,83.64
2018-07-05T02:38:52.140Z,83.54
2018-07-05T02:39:52.164Z,83.74
2018-07-05T02:40:52.183Z,84.51
2018-07-05T02:41:52.214Z,83.93
2018-07-05T02:42:52.236Z,83.54
2018-07-05T02:43:52.260Z,83.54
2018-07-05T02:44:52.267Z,84.12
2018-07-05T02:45:52.284Z,84.70
2018-07-05T02:46:52.304Z,84.03
2018-07-05T02:47:52.328Z,84.12
2018-07-05T02:48:52.358Z,84.75
2018-07-05T02:49:52.372Z,86.10
2018-07-05T02:50:52.392Z,86.63
2018-07-05T02:51:52.417Z,86.72
2018-07-05T02:52:52.441Z,86.54
2018-07-05T02:53:52.450Z,87.01
2018-07-05T02:54:52.484Z,87.78
2018-07-05T02:55:52.497Z,87.78
2018-07-05T02:56:52.527Z,87.98
2018-07-05T02:57:52.532Z,87.30
2018-07-05T02:58:52.558Z,87.40
2018-07-05T02:59:52.589Z,86.82
2018-07-05T03:00:52.595Z,86.72
2018-07-05T03:01:52.623Z,86.00
2018-07-05T03:02:52.640Z,85.86
2018-07-05T03:03:52.663Z,85.96
2018-07-05T03:04:52.695Z,86.05
2018-07-05T03:05:52.705Z,86.82
2018-07-05T03:06:52.729Z,86.48
2018-07-05T03:07:52.757Z,86.54
2018-07-05T03:08:52.768Z,88.07
2018-07-05T03:09:52.789Z,87.84
2018-07-05T03:10:52.808Z,87.98
2018-07-05T03:11:52.824Z,86.10
2018-07-05T03:12:52.859Z,85.42
2018-07-05T03:13:52.875Z,84.85
2018-07-05T03:14:52.886Z,84.56
2018-07-05T03:15:52.914Z,83.80
2018-07-05T03:16:52.932Z,84.56
2018-07-05T03:17:52.951Z,84.66
2018-07-05T03:18:52.965Z,83.89
2018-07-05T03:19:52.991Z,83.36
2018-07-05T03:20:53.016Z,83.03
2018-07-05T03:21:53.035Z,84.56
2018-07-05T03:22:53.056Z,85.33
2018-07-05T03:23:53.075Z,86.25
2018-07-05T03:24:53.115Z,87.40
2018-07-05T03:25:53.113Z,87.40
2018-07-05T03:26:53.142Z,86.92
2018-07-05T03:27:53.156Z,86.19
2018-07-05T03:28:53.187Z,86.10
2018-07-05T03:29:53.196Z,87.21
2018-07-05T03:30:53.216Z,87.30
2018-07-05T03:31:53.245Z,87.11
2018-07-05T03:32:53.258Z,87.88
2018-07-05T03:33:53.282Z,87.74
2018-07-05T03:34:53.307Z,88.12
2018-07-05T03:35:53.353Z,88.02
2018-07-05T03:36:53.350Z,87.88
2018-07-05T03:37:53.362Z,88.17
2018-07-05T03:38:53.381Z,87.01
2018-07-05T03:39:53.420Z,86.63
2018-07-05T03:40:53.423Z,85.14
2018-07-05T03:41:53.440Z,84.51
2018-07-05T03:42:53.467Z,84.51
2018-07-05T03:43:53.485Z,84.37
2018-07-05T03:44:53.514Z,85.42
2018-07-05T03:45:53.522Z,85.33
2018-07-05T03:46:53.546Z,85.24
2018-07-05T03:47:53.581Z,84.70
2018-07-05T03:48:53.586Z,84.70
2018-07-05T03:49:53.612Z,84.85
2018-07-05T03:50:53.630Z,84.85
2018-07-05T03:51:53.651Z,86.05
2018-07-05T03:52:53.676Z,86.63
2018-07-05T03:53:53.694Z,87.30
2018-07-05T03:54:53.724Z,87.78
2018-07-05T03:55:53.733Z,87.74
2018-07-05T03:56:53.754Z,87.93
2018-07-05T03:57:53.782Z,89.08
2018-07-05T03:58:53.792Z,89.27
2018-07-05T03:59:53.818Z,88.74
2018-07-05T04:00:53.845Z,87.82
2018-07-05T04:01:53.876Z,86.10
2018-07-05T04:02:53.880Z,84.51
2018-07-05T04:03:53.902Z,83.74
2018-07-05T04:04:53.920Z,82.97
2018-07-05T04:05:53.940Z,83.07
2018-07-05T04:06:53.959Z,83.36
2018-07-05T04:07:53.987Z,82.43
2018-07-05T04:08:54.004Z,82.34
2018-07-05T04:09:54.023Z,82.15
2018-07-05T04:10:54.073Z,81.67
2018-07-05T04:11:54.084Z,84.12
2018-07-05T04:12:54.082Z,85.62
2018-07-05T04:13:54.107Z,85.62
2018-07-05T04:14:54.136Z,86.10
2018-07-05T04:15:54.171Z,86.92
2018-07-05T04:16:54.183Z,87.01
2018-07-05T04:17:54.190Z,87.40
2018-07-05T04:18:54.216Z,87.78
2018-07-05T04:19:54.240Z,88.35
2018-07-05T04:20:54.256Z,88.93
2018-07-05T04:21:54.278Z,89.12
2018-07-05T04:22:54.297Z,88.93
2018-07-05T04:23:54.325Z,88.74
2018-07-05T04:24:54.342Z,89.12
2018-07-05T04:25:54.357Z,87.98
2018-07-05T04:26:54.381Z,87.35
2018-07-05T04:27:54.433Z,85.66
2018-07-05T04:28:54.431Z,84.45
2018-07-05T04:29:54.446Z,83.20
2018-07-05T04:30:54.468Z,83.11
2018-07-05T04:31:54.486Z,83.74
2018-07-05T04:32:54.505Z,84.60
2018-07-05T04:33:54.526Z,84.94
2018-07-05T04:34:54.563Z,83.78
2018-07-05T04:35:54.579Z,84.70
2018-07-05T04:36:54.591Z,85.13
2018-07-05T04:37:54.612Z,83.97
2018-07-05T04:38:54.633Z,82.38
2018-07-05T04:39:54.664Z,81.56
2018-07-05T04:40:54.680Z,81.56
2018-07-05T04:41:54.694Z,81.37
2018-07-05T04:42:54.733Z,81.84
2018-07-05T04:43:54.743Z,82.38
2018-07-05T04:44:54.766Z,81.94
2018-07-05T04:45:54.782Z,80.79
2018-07-05T04:46:54.811Z,80.79
2018-07-05T04:47:54.836Z,81.17
2018-07-05T04:48:54.847Z,80.98
2018-07-05T04:49:54.881Z,81.60
2018-07-05T04:50:54.895Z,80.73
2018-07-05T04:51:54.911Z,79.33
2018-07-05T04:52:54.937Z,78.59
2018-07-05T04:53:54.961Z,77.25
2018-07-05T04:54:54.979Z,77.09
2018-07-05T04:55:55.005Z,76.13
2018-07-05T04:56:55.023Z,75.84
2018-07-05T04:57:55.043Z,75.01
2018-07-05T04:58:55.071Z,74.27
2018-07-05T04:59:55.101Z,72.61
2018-07-05T05:00:55.119Z,70.26
2018-07-05T05:01:55.137Z,67.94
2018-07-05T05:02:55.155Z,68.01
2018-07-05T05:03:55.179Z,66.63
2018-07-05T05:04:55.199Z,63.62
2018-07-05T05:05:55.225Z,64.14
2018-07-05T05:06:55.249Z,63.37
2018-07-05T05:07:55.277Z,63.46
2018-07-05T05:08:55.300Z,62.69
2018-07-05T05:09:55.320Z,62.04
2018-07-05T05:10:55.356Z,61.39
2018-07-05T05:11:55.371Z,60.42
2018-07-05T05:12:55.398Z,59.48
2018-07-05T05:13:55.419Z,60.23
2018-07-05T05:14:55.502Z,60.38
2018-07-05T05:15:55.465Z,56.92
2018-07-05T05:16:55.491Z,56.92
2018-07-05T05:17:55.523Z,59.33
2018-07-05T05:18:55.590Z,60.88
2018-07-05T05:19:55.572Z,61.62
2018-07-05T05:20:55.603Z,61.91
2018-07-05T05:21:55.622Z,60.94
2018-07-05T05:22:55.641Z,60.32
2018-07-05T05:23:55.672Z,61.62
2018-07-05T05:24:55.711Z,61.98
2018-07-05T05:25:55.734Z,59.12
2018-07-05T05:26:55.764Z,58.12
2018-07-05T05:27:55.775Z,59.64
2018-07-05T05:28:55.817Z,59.84
2018-07-05T05:29:55.863Z,60.23
2018-07-05T05:30:55.857Z,59.67
2018-07-05T05:31:55.888Z,58.21
2018-07-05T05:32:55.910Z,56.16
2018-07-05T05:33:55.937Z,57.57
2018-07-05T05:34:55.968Z,57.18
2018-07-05T05:35:55.995Z,58.54
2018-07-05T05:36:56.023Z,59.70
2018-07-05T05:37:56.046Z,58.34
2018-07-05T05:38:56.118Z,59.16
2018-07-05T05:39:56.101Z,59.87
2018-07-05T05:40:56.132Z,58.31
2018-07-05T05:41:56.156Z,54.94
2018-07-05T05:42:56.185Z,51.04
2018-07-05T05:43:56.217Z,49.02
2018-07-05T05:44:56.243Z,48.34
2018-07-05T05:45:56.267Z,47.58
2018-07-05T05:46:56.297Z,47.19
2018-07-05T05:47:56.330Z,47.14
2018-07-05T05:48:56.374Z,48.58
2018-07-05T05:49:56.380Z,50.12
2018-07-05T05:50:56.405Z,49.73
2018-07-05T05:51:56.438Z,50.68
2018-07-05T05:52:56.472Z,50.02
2018-07-05T05:53:56.500Z,49.95
2018-07-05T05:54:56.524Z,50.02
2018-07-05T05:55:56.556Z,50.12
2018-07-05T05:56:56.590Z,51.24
2018-07-05T05:57:56.613Z,50.48
2018-07-05T05:58:56.641Z,50.41
2018-07-05T05:59:56.671Z,50.41
2018-07-05T06:00:56.721Z,50.73
2018-07-05T06:01:56.791Z,47.06
2018-07-05T06:02:56.757Z,43.90
2018-07-05T06:03:56.795Z,45.51
2018-07-05T06:04:56.828Z,48.49
2018-07-05T06:05:56.844Z,51.31
2018-07-05T06:06:56.876Z,52.75
2018-07-05T06:07:56.936Z,53.62
2018-07-05T06:08:56.935Z,51.87
2018-07-05T06:09:56.976Z,47.87
2018-07-05T06:10:56.993Z,45.69
2018-07-05T06:11:57.023Z,44.15
2018-07-05T06:12:57.061Z,43.76
2018-07-05T06:13:57.122Z,45.28
2018-07-05T06:14:57.112Z,47.27
2018-07-05T06:15:57.144Z,48.41
2018-07-05T06:16:57.169Z,46.75
2018-07-05T06:17:57.204Z,44.29
2018-07-05T06:18:57.235Z,42.08
2018-07-05T06:19:57.268Z,41.11
2018-07-05T06:20:57.297Z,40.64
2018-07-05T06:21:57.322Z,40.01
2018-07-05T06:22:57.351Z,40.53
2018-07-05T06:23:57.395Z,39.48
2018-07-05T06:24:57.416Z,38.72
2018-07-05T06:25:57.446Z,38.60
2018-07-05T06:26:57.478Z,38.03
2018-07-05T06:27:57.506Z,37.55
2018-07-05T06:28:57.548Z,37.46
2018-07-05T06:29:57.562Z,40.90
2018-07-05T06:30:57.604Z,38.74
2018-07-05T06:31:57.641Z,37.48
2018-07-05T06:32:57.663Z,37.84
2018-07-05T06:33:57.688Z,37.42
2018-07-05T06:34:57.732Z,39.90
2018-07-05T06:35:57.746Z,40.88
2018-07-05T06:36:57.794Z,39.35
2018-07-05T06:37:57.825Z,40.84
2018-07-05T06:38:57.847Z,40.76
2018-07-05T06:39:57.877Z,41.52
2018-07-05T06:40:57.909Z,42.29
2018-07-05T06:41:57.936Z,41.45
2018-07-05T06:42:57.969Z,40.09
2018-07-05T06:43:57.999Z,41.11
2018-07-05T06:44:58.027Z,41.88
2018-07-05T06:45:58.063Z,41.89
2018-07-05T06:46:58.094Z,41.15
2018-07-05T06:47:58.118Z,39.66
2018-07-05T06:48:58.156Z,37.54
2018-07-05T06:49:58.182Z,35.59
2018-07-05T06:50:58.214Z,35.57
2018-07-05T06:51:58.250Z,36.24
2018-07-05T06:52:58.301Z,36.52
2018-07-05T06:53:58.308Z,37.37
2018-07-05T06:54:58.347Z,36.44
2018-07-05T06:55:58.376Z,37.84
2018-07-05T06:56:58.430Z,37.13
2018-07-05T06:57:58.454Z,37.31
2018-07-05T06:58:58.471Z,38.16
2018-07-05T06:59:58.499Z,38.08
2018-07-05T07:00:58.536Z,38.16
2018-07-05T07:01:58.557Z,37.86
2018-07-05T07:02:58.587Z,36.37
2018-07-05T07:03:58.622Z,34.53
2018-07-05T07:04:58.653Z,33.38
2018-07-05T07:05:58.765Z,34.75
2018-07-05T07:06:58.767Z,35.21
2018-07-05T07:07:58.787Z,36.04
2018-07-05T07:08:58.778Z,37.13
2018-07-05T07:09:58.811Z,35.57
2018-07-05T07:10:58.843Z,32.79
2018-07-05T07:11:58.870Z,31.32
2018-07-05T07:12:58.920Z,30.94
2018-07-05T07:13:58.938Z,30.17
2018-07-05T07:14:58.970Z,30.09
2018-07-05T07:15:59.046Z,28.62
2018-07-05T07:16:59.032Z,26.97
2018-07-05T07:17:59.068Z,26.28
2018-07-05T07:18:59.097Z,25.50
2018-07-05T07:19:59.140Z,25.70
2018-07-05T07:20:59.170Z,26.10
2018-07-05T07:21:59.204Z,28.56
2018-07-05T07:22:59.224Z,31.38
2018-07-05T07:23:59.277Z,31.56
2018-07-05T07:24:59.291Z,32.20
2018-07-05T07:25:59.318Z,32.40
2018-07-05T07:26:59.350Z,33.15
2018-07-05T07:27:59.379Z,33.44
2018-07-05T07:28:59.414Z,33.46
2018-07-05T07:29:59.447Z,34.21
2018-07-05T07:30:59.481Z,35.53
2018-07-05T07:31:59.631Z,34.36
2018-07-05T07:32:59.560Z,33.38
2018-07-05T07:33:59.582Z,32.74
2018-07-05T07:34:59.616Z,31.00
2018-07-05T07:35:59.635Z,31.45
2018-07-05T07:36:59.675Z,31.32
2018-07-05T07:37:59.700Z,29.52
2018-07-05T07:38:59.726Z,28.27
2018-07-05T07:39:59.764Z,28.23
2018-07-05T07:40:59.816Z,27.96
2018-07-05T07:41:59.822Z,26.60
2018-07-05T07:42:59.864Z,25.93
2018-07-05T07:43:59.901Z,25.65
2018-07-05T07:44:59.930Z,25.85
2018-07-05T07:45:59.965Z,24.77
2018-07-05T07:46:59.985Z,24.85
2018-07-05T07:48:00.038Z,24.60
2018-07-05T07:49:00.045Z,24.95
2018-07-05T07:50:00.080Z,25.60
2018-07-05T07:51:00.108Z,29.90
2018-07-05T07:52:00.151Z,29.76
2018-07-05T07:53:00.177Z,30.46
2018-07-05T07:54:00.218Z,31.46
2018-07-05T07:55:00.252Z,32.79
2018-07-05T07:56:00.270Z,32.84
2018-07-05T07:57:00.311Z,32.81
2018-07-05T07:58:00.340Z,33.56
2018-07-05T07:59:00.373Z,33.97
2018-07-05T08:00:00.398Z,33.74
2018-07-05T08:01:00.425Z,32.86
2018-07-05T08:02:00.469Z,30.65
2018-07-05T08:03:00.493Z,30.09
2018-07-05T08:04:00.517Z,29.43
2018-07-05T08:05:00.563Z,28.72
2018-07-05T08:06:00.587Z,28.80
2018-07-05T08:07:00.631Z,28.85
2018-07-05T08:08:00.670Z,28.35
2018-07-05T08:09:00.710Z,27.01
2018-07-05T08:10:00.712Z,26.70
2018-07-05T08:11:00.741Z,26.53
2018-07-05T08:12:00.773Z,26.21
2018-07-05T08:13:00.809Z,26.06
2018-07-05T08:14:00.846Z,26.62
2018-07-05T08:15:00.914Z,26.62
2018-07-05T08:16:00.909Z,26.77
2018-07-05T08:17:00.931Z,26.60
2018-07-05T08:18:00.958Z,27.84
2018-07-05T08:19:01.000Z,28.53
2018-07-05T08:20:01.055Z,27.29
2018-07-05T08:21:01.060Z,26.77
2018-07-05T08:22:01.085Z,28.69
2018-07-05T08:23:01.121Z,29.28
2018-07-05T08:24:01.148Z,29.30
2018-07-05T08:25:01.176Z,28.70
2018-07-05T08:26:01.205Z,29.69
2018-07-05T08:27:01.236Z,29.86
2018-07-05T08:28:01.268Z,30.91
2018-07-05T08:29:01.303Z,30.07
2018-07-05T08:30:01.335Z,29.69
2018-07-05T08:31:01.358Z,30.15
2018-07-05T08:32:01.394Z,31.49
2018-07-05T08:33:01.435Z,31.13
2018-07-05T08:34:01.475Z,30.93
2018-07-05T08:35:01.483Z,30.35
2018-07-05T08:36:01.509Z,31.13
2018-07-05T08:37:01.539Z,31.04
2018-07-05T08:38:01.566Z,29.97
2018-07-05T08:39:01.595Z,29.89
2018-07-05T08:40:01.628Z,31.70
2018-07-05T08:41:01.651Z,32.53
2018-07-05T08:42:01.684Z,34.83
2018-07-05T08:43:01.714Z,34.18
2018-07-05T08:44:01.751Z,34.00
2018-07-05T08:45:01.781Z,34.18
2018-07-05T08:46:01.817Z,33.72
2018-07-05T08:47:01.825Z,34.08
2018-07-05T08:48:01.885Z,34.18
2018-07-05T08:49:01.879Z,34.54
2018-07-05T08:50:01.916Z,35.33
2018-07-05T08:51:01.941Z,34.66
2018-07-05T08:52:01.977Z,35.05
2018-07-05T08:53:01.994Z,35.64
2018-07-05T08:54:02.023Z,35.05
2018-07-05T08:55:02.054Z,34.95
2018-07-05T08:56:02.080Z,35.14
2018-07-05T08:57:02.112Z,35.93
2018-07-05T08:58:02.139Z,36.11
2018-07-05T08:59:02.178Z,35.52
2018-07-05T09:00:02.193Z,35.52
2018-07-05T09:01:02.220Z,35.72
2018-07-05T09:02:02.255Z,36.22
2018-07-05T09:03:02.279Z,35.83
2018-07-05T09:04:02.313Z,35.74
2018-07-05T09:05:02.336Z,34.66
2018-07-05T09:06:02.359Z,34.56
2018-07-05T09:07:02.385Z,34.54
2018-07-05T09:08:02.418Z,34.74
2018-07-05T09:09:02.442Z,34.66
2018-07-05T09:10:02.474Z,34.20
2018-07-05T09:11:02.505Z,33.39
2018-07-05T09:12:02.522Z,33.41
2018-07-05T09:13:02.550Z,33.33
2018-07-05T09:14:02.594Z,33.39
2018-07-05T09:15:02.601Z,33.67
2018-07-05T09:16:02.628Z,34.08
2018-07-05T09:17:02.671Z,34.46
2018-07-05T09:18:02.721Z,33.89
2018-07-05T09:19:02.754Z,35.39
2018-07-05T09:20:02.747Z,36.65
2018-07-05T09:21:02.777Z,36.19
2018-07-05T09:22:02.804Z,35.89
2018-07-05T09:23:02.865Z,35.68
2018-07-05T09:24:02.858Z,36.08
2018-07-05T09:25:02.908Z,37.23
2018-07-05T09:26:02.905Z,35.97
2018-07-05T09:27:02.946Z,36.86
2018-07-05T09:28:02.965Z,35.93
2018-07-05T09:29:03.001Z,34.58
2018-07-05T09:30:03.016Z,33.70
2018-07-05T09:31:03.103Z,33.41
2018-07-05T09:32:03.068Z,33.53
2018-07-05T09:33:03.097Z,34.58
2018-07-05T09:34:03.129Z,35.50
2018-07-05T09:35:03.153Z,35.68
2018-07-05T09:36:03.176Z,36.84
2018-07-05T09:37:03.290Z,37.65
2018-07-05T09:38:03.243Z,36.88
2018-07-05T09:39:03.270Z,36.37
2018-07-05T09:40:03.292Z,35.70
2018-07-05T09:41:03.312Z,37.33
2018-07-05T09:42:03.352Z,35.52
2018-07-05T09:43:03.374Z,36.47
2018-07-05T09:44:03.410Z,37.25
2018-07-05T09:45:03.421Z,37.35
2018-07-05T09:46:03.453Z,36.18
2018-07-05T09:47:03.536Z,35.52
2018-07-05T09:48:03.515Z,35.13
2018-07-05T09:49:03.536Z,35.52
2018-07-05T09:50:03.557Z,35.54
2018-07-05T09:51:03.587Z,34.47
2018-07-05T09:52:03.614Z,33.98
2018-07-05T09:53:03.645Z,34.92
2018-07-05T09:54:03.666Z,34.90
2018-07-05T09:55:03.702Z,35.21
2018-07-05T09:56:03.720Z,35.41
2018-07-05T09:57:03.750Z,36.18
2018-07-05T09:58:03.840Z,35.19
2018-07-05T09:59:03.805Z,34.51
2018-07-05T10:00:03.830Z,35.39
2018-07-05T10:01:03.863Z,35.08
2018-07-05T10:02:03.897Z,35.39
2018-07-05T10:03:03.913Z,35.58
2018-07-05T10:04:03.941Z,34.23
2018-07-05T10:05:03.969Z,35.00
2018-07-05T10:06:03.992Z,34.90
2018-07-05T10:07:04.032Z,34.41
2018-07-05T10:08:04.047Z,34.33
2018-07-05T10:09:04.083Z,34.80
2018-07-05T10:10:04.121Z,35.49
2018-07-05T10:11:04.133Z,34.61
2018-07-05T10:12:04.154Z,34.41
2018-07-05T10:13:04.244Z,34.51
2018-07-05T10:14:04.230Z,34.61
2018-07-05T10:15:04.233Z,34.83
2018-07-05T10:16:04.275Z,34.54
2018-07-05T10:17:04.290Z,34.74
2018-07-05T10:18:04.322Z,34.85
2018-07-05T10:19:04.346Z,34.58
2018-07-05T10:20:04.386Z,33.98
2018-07-05T10:21:04.399Z,33.59
2018-07-05T10:22:04.435Z,33.48
2018-07-05T10:23:04.450Z,33.49
2018-07-05T10:24:04.483Z,34.08
2018-07-05T10:25:04.507Z,33.49
2018-07-05T10:26:04.528Z,33.49
2018-07-05T10:27:04.627Z,32.90
2018-07-05T10:28:04.592Z,33.69
2018-07-05T10:29:04.626Z,34.26
2018-07-05T10:30:04.649Z,33.97
2018-07-05T10:31:04.668Z,34.26
2018-07-05T10:32:04.697Z,34.30
2018-07-05T10:33:04.737Z,33.61
2018-07-05T10:34:04.747Z,33.62
2018-07-05T10:35:04.788Z,33.51
2018-07-05T10:36:04.804Z,33.67
2018-07-05T10:37:04.841Z,34.28
2018-07-05T10:38:04.866Z,33.03
2018-07-05T10:39:04.891Z,32.81
2018-07-05T10:40:04.916Z,33.02
2018-07-05T10:41:04.943Z,32.53
2018-07-05T10:42:04.976Z,33.64
2018-07-05T10:43:04.998Z,34.41
2018-07-05T10:44:05.028Z,34.61
2018-07-05T10:45:05.052Z,34.34
2018-07-05T10:46:05.080Z,34.15
2018-07-05T10:47:05.106Z,33.75
2018-07-05T10:48:05.140Z,33.95
2018-07-05T10:49:05.167Z,33.67
2018-07-05T10:50:05.184Z,33.20
2018-07-05T10:51:05.235Z,32.64
2018-07-05T10:52:05.242Z,32.53
2018-07-05T10:53:05.266Z,31.46
2018-07-05T10:54:05.306Z,32.43
2018-07-05T10:55:05.330Z,32.72
2018-07-05T10:56:05.372Z,33.18
2018-07-05T10:57:05.382Z,34.16
2018-07-05T10:58:05.414Z,33.10
2018-07-05T10:59:05.439Z,32.54
2018-07-05T11:00:05.463Z,32.81
2018-07-05T11:01:05.521Z,34.34
2018-07-05T11:02:05.519Z,34.42
2018-07-05T11:03:05.547Z,34.15
2018-07-05T11:04:05.592Z,34.72
2018-07-05T11:05:05.600Z,34.74
2018-07-05T11:06:05.622Z,33.77
2018-07-05T11:07:05.720Z,33.48
2018-07-05T11:08:05.680Z,33.64
2018-07-05T11:09:05.716Z,33.85
2018-07-05T11:10:05.730Z,34.15
2018-07-05T11:11:05.759Z,34.15
2018-07-05T11:12:05.790Z,33.58
2018-07-05T11:13:05.820Z,33.67
2018-07-05T11:14:05.836Z,34.16
2018-07-05T11:15:05.868Z,33.48
2018-07-05T11:16:05.897Z,34.05
2018-07-05T11:17:05.923Z,33.95
2018-07-05T11:18:05.955Z,33.29
2018-07-05T11:19:05.981Z,33.34
2018-07-05T11:20:06.004Z,33.74
2018-07-05T11:21:06.036Z,33.28
2018-07-05T11:22:06.062Z,33.36
2018-07-05T11:23:06.093Z,33.56
2018-07-05T11:24:06.117Z,34.80
2018-07-05T11:25:06.142Z,35.47
2018-07-05T11:26:06.171Z,35.00
2018-07-05T11:27:06.208Z,33.94
2018-07-05T11:28:06.230Z,34.13
2018-07-05T11:29:06.248Z,34.11
2018-07-05T11:30:06.310Z,34.11
2018-07-05T11:31:06.308Z,35.47
2018-07-05T11:32:06.334Z,34.33
2018-07-05T11:33:06.354Z,34.03
2018-07-05T11:34:06.393Z,33.85
2018-07-05T11:35:06.441Z,32.98
2018-07-05T11:36:06.435Z,32.89
2018-07-05T11:37:06.458Z,33.08
2018-07-05T11:38:06.522Z,32.69
2018-07-05T11:39:06.529Z,33.10
2018-07-05T11:40:06.546Z,32.72
2018-07-05T11:41:06.602Z,31.84
2018-07-05T11:42:06.595Z,33.28
2018-07-05T11:43:06.631Z,33.85
2018-07-05T11:44:06.657Z,35.19
2018-07-05T11:45:06.680Z,34.92
2018-07-05T11:46:06.711Z,34.90
2018-07-05T11:47:06.743Z,34.52
2018-07-05T11:48:06.769Z,34.13
2018-07-05T11:49:06.788Z,33.84
2018-07-05T11:50:06.811Z,33.95
2018-07-05T11:51:06.862Z,33.29
2018-07-05T11:52:06.939Z,33.54
2018-07-05T11:53:06.895Z,34.51
2018-07-05T11:54:06.918Z,35.08
2018-07-05T11:55:06.954Z,35.45
2018-07-05T11:56:06.976Z,35.66
2018-07-05T11:57:07.002Z,34.98
2018-07-05T11:58:07.027Z,34.42
2018-07-05T11:59:07.077Z,34.81
2018-07-05T12:00:07.084Z,34.52
2018-07-05T12:01:07.120Z,33.34
2018-07-05T12:02:07.156Z,33.54
2018-07-05T12:03:07.167Z,33.95
2018-07-05T12:04:07.220Z,34.72
2018-07-05T12:05:07.227Z,35.86
2018-07-05T12:06:07.245Z,35.78
2018-07-05T12:07:07.285Z,35.08
2018-07-05T12:08:07.300Z,35.39
2018-07-05T12:09:07.333Z,34.92
2018-07-05T12:10:07.352Z,33.85
2018-07-05T12:11:07.383Z,33.59
2018-07-05T12:12:07.407Z,33.48
2018-07-05T12:13:07.443Z,34.66
2018-07-05T12:14:07.471Z,34.16
2018-07-05T12:15:07.495Z,34.83
2018-07-05T12:16:07.534Z,34.44
2018-07-05T12:17:07.552Z,33.34
2018-07-05T12:18:07.575Z,33.75
2018-07-05T12:19:07.599Z,34.05
2018-07-05T12:20:07.619Z,33.17
2018-07-05T12:21:07.658Z,32.90
2018-07-05T12:22:07.691Z,32.87
2018-07-05T12:23:07.714Z,33.17
2018-07-05T12:24:07.742Z,33.62
2018-07-05T12:25:07.774Z,33.94
2018-07-05T12:26:07.793Z,33.75
2018-07-05T12:27:07.820Z,34.31
2018-07-05T12:28:07.850Z,35.10
2018-07-05T12:29:07.888Z,34.92
2018-07-05T12:30:07.906Z,34.25
2018-07-05T12:31:07.939Z,34.42
2018-07-05T12:32:07.960Z,33.95
2018-07-05T12:33:07.983Z,34.98
2018-07-05T12:34:08.001Z,35.65
2018-07-05T12:35:08.033Z,35.57
2018-07-05T12:36:08.057Z,35.55
2018-07-05T12:37:08.096Z,35.94
2018-07-05T12:38:08.133Z,36.61
2018-07-05T12:39:08.136Z,36.02
2018-07-05T12:40:08.176Z,37.27
2018-07-05T12:41:08.218Z,36.80
2018-07-05T12:42:08.235Z,36.43
2018-07-05T12:43:08.242Z,36.04
2018-07-05T12:44:08.264Z,36.43
2018-07-05T12:45:08.294Z,36.04
2018-07-05T12:46:08.325Z,37.10
2018-07-05T12:47:08.354Z,36.51
2018-07-05T12:48:08.375Z,36.80
2018-07-05T12:49:08.396Z,37.49
2018-07-05T12:50:08.443Z,36.90
2018-07-05T12:51:08.475Z,36.14
2018-07-05T12:52:08.480Z,36.14
2018-07-05T12:53:08.523Z,36.02